Carney, OK

2:42 PM CDT on August 30, 2014 (GMT -0500)
Chandler Municipal | Change Station
CLOSE
Current Station
Airport
Location: Chandler,
Elevation: 984 ft
Nearby Weather Stations

Elev 984 ft 35.72 °N, 96.82 °W | Updated 27 minutes ago

Haze
Haze
97 °F
Feels Like 98 °F
N
4
Wind Variable Wind from NNE

Today
High -- | Low -- °F
--% Chance of Precip.
Yesterday
High -- | Low -- °F
Precip. -- in
6:58 AM 7:58 PM
Waxing Crescent, 24% visible
Pressure 29.91 in
Visibility 1.5 miles
Clouds
Heat Index 98 °F
Dew Point 63 °F
Humidity 32%
Rainfall 0.00 in
Snow Depth Not available.
UV Not available.
Pollen 9.90 out of 12
Air Quality Not available.
Flu Activity Not available.
METAR KCQB 301915Z AUTO 03003KT 1 1/2SM HZ VV007 36/17 A2991 RMK AO2 VIS 1/2V5

More Conditions Fewer Conditions

Pressure 29.91 in
Visibility 1.5 miles
Clouds
Heat Index 98 °F
Dew Point 63 °F
Humidity 32%
Rainfall 0.00 in
Snow Depth Not available.
UV Not available.
Pollen 9.90 out of 12
Air Quality Not available.
Flu Activity Not available.
METAR KCQB 301915Z AUTO 03003KT 1 1/2SM HZ VV007 36/17 A2991 RMK AO2 VIS 1/2V5

More Conditions Fewer Conditions

10-Day Weather Forecast

Almanac

Astronomy

Aug. 30, 2014 Rise Set
Actual Time 6:58 AM CDT 7:58 PM CDT
Civil Twilight 6:32 AM CDT 8:24 PM CDT
Nautical Twilight 6:01 AM CDT 8:55 PM CDT
Astronomical Twilight 5:28 AM CDT 9:27 PM CDT
Moon 11:36 AM CDT 10:44 PM CDT
Length of Visible Light 13h 52m
Length of Day
12h 59m
Tomorrow will be 2m 9s shorter.
Waxing Crescent, 24% of the Moon is Illuminated
Today
Waxing Crescent
Sep 2
First Quarter
Sep 8
Full
Sep 15
Last Quarter
Sep 24
New

Today's Extremes

State Highs State Lows

Community

WunderPhotos

Upload Photos

1,748,614 photos uploaded!

WunderBlogs® & News

Nearby

Snow Depth

Station Depth Elevation
No new snow has been reported.

Earthquake Activity

City Distance Mag. Time & Date
Guthrie, Oklahoma 23 miles 3.2 10:39 AM CDT
2014-08-29
Perry, Oklahoma 41 miles 3.0 4:52 AM CDT
2014-08-29
Perry, Oklahoma 39 miles 3.1 10:01 PM CDT
2014-08-28
Minimum magnitude displayed is 2.5.

Coastal Water Temperatures

Place Temperature
No Stations Reporting

Nearby Weather Stations